sensor_id;sensor_type;location;lat;lon;timestamp;pressure;altitude;pressure_sealevel;temperature;humidity
80749;BME280;70145;53.746;9.970;2023-09-19T00:01:28;100004.78;;;15.86;56.61
80749;BME280;70145;53.746;9.970;2023-09-19T00:03:55;99998.34;;;15.87;56.23
80749;BME280;70145;53.746;9.970;2023-09-19T00:06:22;100003.97;;;15.86;56.31
80749;BME280;70145;53.746;9.970;2023-09-19T00:08:51;99996.81;;;15.85;56.05
80749;BME280;70145;53.746;9.970;2023-09-19T00:11:16;99996.34;;;15.81;56.49
80749;BME280;70145;53.746;9.970;2023-09-19T00:13:42;100011.28;;;15.77;56.68
80749;BME280;70145;53.746;9.970;2023-09-19T00:16:09;100000.06;;;15.80;56.45
80749;BME280;70145;53.746;9.970;2023-09-19T00:18:36;100001.28;;;15.78;56.45
80749;BME280;70145;53.746;9.970;2023-09-19T00:21:02;99989.38;;;15.79;56.38
80749;BME280;70145;53.746;9.970;2023-09-19T00:23:29;99994.81;;;15.79;56.29
80749;BME280;70145;53.746;9.970;2023-09-19T00:25:58;100003.81;;;15.79;56.48
80749;BME280;70145;53.746;9.970;2023-09-19T00:28:24;100010.47;;;15.77;56.55
80749;BME280;70145;53.746;9.970;2023-09-19T00:30:49;100011.66;;;15.74;56.54
80749;BME280;70145;53.746;9.970;2023-09-19T00:33:21;100021.69;;;15.74;56.67
80749;BME280;70145;53.746;9.970;2023-09-19T00:35:53;100026.06;;;15.75;56.21
80749;BME280;70145;53.746;9.970;2023-09-19T00:38:20;100037.13;;;15.73;56.41
80749;BME280;70145;53.746;9.970;2023-09-19T00:40:48;100035.75;;;15.69;56.30
80749;BME280;70145;53.746;9.970;2023-09-19T00:43:14;100025.75;;;15.70;56.61
80749;BME280;70145;53.746;9.970;2023-09-19T00:45:43;100028.66;;;15.68;56.38
80749;BME280;70145;53.746;9.970;2023-09-19T00:48:09;100025.09;;;15.68;56.66
80749;BME280;70145;53.746;9.970;2023-09-19T00:50:36;100029.00;;;15.65;56.67
80749;BME280;70145;53.746;9.970;2023-09-19T00:53:02;100032.19;;;15.69;56.32
80749;BME280;70145;53.746;9.970;2023-09-19T00:55:38;100028.66;;;15.68;56.39
80749;BME280;70145;53.746;9.970;2023-09-19T00:58:04;100038.47;;;15.69;56.35
80749;BME280;70145;53.746;9.970;2023-09-19T01:00:33;100050.19;;;15.70;56.22
80749;BME280;70145;53.746;9.970;2023-09-19T01:02:59;100040.50;;;15.67;56.45
80749;BME280;70145;53.746;9.970;2023-09-19T01:05:26;100045.28;;;15.65;56.72
80749;BME280;70145;53.746;9.970;2023-09-19T01:07:51;100046.97;;;15.66;56.61
80749;BME280;70145;53.746;9.970;2023-09-19T01:10:19;100048.00;;;15.65;56.77
80749;BME280;70145;53.746;9.970;2023-09-19T01:13:05;100043.59;;;15.64;56.72
80749;BME280;70145;53.746;9.970;2023-09-19T01:21:15;100039.72;;;15.59;57.05
80749;BME280;70145;53.746;9.970;2023-09-19T01:29:48;100049.59;;;15.52;57.01
80749;BME280;70145;53.746;9.970;2023-09-19T01:32:18;100052.16;;;15.53;56.79
80749;BME280;70145;53.746;9.970;2023-09-19T01:34:54;100048.75;;;15.51;56.87
80749;BME280;70145;53.746;9.970;2023-09-19T01:37:23;100046.22;;;15.50;56.61
80749;BME280;70145;53.746;9.970;2023-09-19T01:40:35;100049.09;;;15.48;56.96
80749;BME280;70145;53.746;9.970;2023-09-19T01:43:11;100066.78;;;15.44;56.95
80749;BME280;70145;53.746;9.970;2023-09-19T01:45:46;100068.47;;;15.45;56.62
80749;BME280;70145;53.746;9.970;2023-09-19T01:51:07;100069.00;;;15.41;57.12
80749;BME280;70145;53.746;9.970;2023-09-19T01:53:51;100075.63;;;15.38;57.09
80749;BME280;70145;53.746;9.970;2023-09-19T01:56:29;100073.75;;;15.39;57.01
80749;BME280;70145;53.746;9.970;2023-09-19T01:59:04;100079.53;;;15.36;57.10
80749;BME280;70145;53.746;9.970;2023-09-19T02:01:31;100079.34;;;15.37;57.09
80749;BME280;70145;53.746;9.970;2023-09-19T02:03:56;100078.50;;;15.37;56.98
80749;BME280;70145;53.746;9.970;2023-09-19T02:06:21;100081.38;;;15.35;56.81
80749;BME280;70145;53.746;9.970;2023-09-19T02:08:47;100075.97;;;15.35;56.85
80749;BME280;70145;53.746;9.970;2023-09-19T02:11:12;100086.00;;;15.35;56.94
80749;BME280;70145;53.746;9.970;2023-09-19T02:13:38;100096.84;;;15.35;57.02
80749;BME280;70145;53.746;9.970;2023-09-19T02:16:03;100101.41;;;15.34;56.81
80749;BME280;70145;53.746;9.970;2023-09-19T02:18:30;100101.59;;;15.33;56.70
80749;BME280;70145;53.746;9.970;2023-09-19T02:20:56;100105.50;;;15.30;56.76
80749;BME280;70145;53.746;9.970;2023-09-19T02:23:21;100106.53;;;15.29;56.84
80749;BME280;70145;53.746;9.970;2023-09-19T02:25:54;100112.13;;;15.28;56.83
80749;BME280;70145;53.746;9.970;2023-09-19T02:28:19;100109.59;;;15.26;56.90
80749;BME280;70145;53.746;9.970;2023-09-19T02:30:49;100109.94;;;15.23;56.63
80749;BME280;70145;53.746;9.970;2023-09-19T02:33:15;100103.84;;;15.21;56.70
80749;BME280;70145;53.746;9.970;2023-09-19T02:35:42;100108.63;;;15.19;56.51
80749;BME280;70145;53.746;9.970;2023-09-19T02:38:07;100119.63;;;15.18;56.59
80749;BME280;70145;53.746;9.970;2023-09-19T02:40:33;100122.69;;;15.15;56.75
80749;BME280;70145;53.746;9.970;2023-09-19T02:43:01;100114.91;;;15.12;56.58
80749;BME280;70145;53.746;9.970;2023-09-19T02:45:27;100124.94;;;15.03;56.72
80749;BME280;70145;53.746;9.970;2023-09-19T02:47:53;100121.19;;;15.04;56.26
80749;BME280;70145;53.746;9.970;2023-09-19T02:50:18;100121.53;;;15.01;56.82
80749;BME280;70145;53.746;9.970;2023-09-19T02:52:45;100112.38;;;15.02;56.76
80749;BME280;70145;53.746;9.970;2023-09-19T02:55:15;100116.97;;;15.02;56.56
80749;BME280;70145;53.746;9.970;2023-09-19T02:57:49;100127.13;;;15.00;56.46
80749;BME280;70145;53.746;9.970;2023-09-19T03:00:17;100120.84;;;14.99;56.42
80749;BME280;70145;53.746;9.970;2023-09-19T03:02:50;100115.59;;;14.98;56.40
80749;BME280;70145;53.746;9.970;2023-09-19T03:05:18;100118.47;;;14.96;56.49
80749;BME280;70145;53.746;9.970;2023-09-19T03:07:44;100127.63;;;14.95;56.09
80749;BME280;70145;53.746;9.970;2023-09-19T03:10:11;100131.69;;;14.91;56.50
80749;BME280;70145;53.746;9.970;2023-09-19T03:12:36;100120.00;;;14.91;56.63
80749;BME280;70145;53.746;9.970;2023-09-19T03:15:02;100136.44;;;14.89;56.91
80749;BME280;70145;53.746;9.970;2023-09-19T03:17:29;100133.72;;;14.89;56.79
80749;BME280;70145;53.746;9.970;2023-09-19T03:19:54;100138.13;;;14.82;57.05
80749;BME280;70145;53.746;9.970;2023-09-19T03:22:20;100131.84;;;14.82;56.99
80749;BME280;70145;53.746;9.970;2023-09-19T03:24:46;100130.84;;;14.83;56.84
80749;BME280;70145;53.746;9.970;2023-09-19T03:27:12;100130.16;;;14.81;57.01
80749;BME280;70145;53.746;9.970;2023-09-19T03:29:41;100134.56;;;14.82;56.97
80749;BME280;70145;53.746;9.970;2023-09-19T03:32:07;100142.88;;;14.80;56.74
80749;BME280;70145;53.746;9.970;2023-09-19T03:34:36;100147.28;;;14.81;56.76
80749;BME280;70145;53.746;9.970;2023-09-19T03:37:01;100148.13;;;14.82;56.76
80749;BME280;70145;53.746;9.970;2023-09-19T03:39:26;100149.31;;;14.79;57.06
80749;BME280;70145;53.746;9.970;2023-09-19T03:41:52;100147.63;;;14.78;56.66
80749;BME280;70145;53.746;9.970;2023-09-19T03:44:17;100150.69;;;14.75;56.45
80749;BME280;70145;53.746;9.970;2023-09-19T03:46:43;100156.28;;;14.74;56.50
80749;BME280;70145;53.746;9.970;2023-09-19T03:49:08;100157.31;;;14.73;56.62
80749;BME280;70145;53.746;9.970;2023-09-19T03:51:34;100161.19;;;14.70;56.76
80749;BME280;70145;53.746;9.970;2023-09-19T03:53:59;100153.22;;;14.69;56.58
80749;BME280;70145;53.746;9.970;2023-09-19T03:56:25;100172.19;;;14.69;56.58
80749;BME280;70145;53.746;9.970;2023-09-19T03:58:50;100166.59;;;14.70;56.45
80749;BME280;70145;53.746;9.970;2023-09-19T04:01:15;100163.22;;;14.68;56.43
80749;BME280;70145;53.746;9.970;2023-09-19T04:03:42;100163.56;;;14.65;56.48
80749;BME280;70145;53.746;9.970;2023-09-19T04:06:16;100164.59;;;14.64;56.25
80749;BME280;70145;53.746;9.970;2023-09-19T04:08:42;100171.00;;;14.63;56.39
80749;BME280;70145;53.746;9.970;2023-09-19T04:11:08;100170.00;;;14.64;55.99
80749;BME280;70145;53.746;9.970;2023-09-19T04:13:33;100183.22;;;14.59;56.23
80749;BME280;70145;53.746;9.970;2023-09-19T04:15:58;100177.09;;;14.57;56.11
80749;BME280;70145;53.746;9.970;2023-09-19T04:18:24;100185.75;;;14.53;56.05
80749;BME280;70145;53.746;9.970;2023-09-19T04:20:50;100179.81;;;14.49;55.80
80749;BME280;70145;53.746;9.970;2023-09-19T04:23:16;100183.03;;;14.45;55.95
80749;BME280;70145;53.746;9.970;2023-09-19T04:25:42;100197.28;;;14.47;55.87
80749;BME280;70145;53.746;9.970;2023-09-19T04:28:08;100196.56;;;14.45;55.77
80749;BME280;70145;53.746;9.970;2023-09-19T04:30:36;100196.06;;;14.41;55.58
80749;BME280;70145;53.746;9.970;2023-09-19T04:33:02;100199.63;;;14.42;55.47
80749;BME280;70145;53.746;9.970;2023-09-19T04:35:27;100213.34;;;14.40;55.85
80749;BME280;70145;53.746;9.970;2023-09-19T04:37:57;100206.56;;;14.36;55.62
80749;BME280;70145;53.746;9.970;2023-09-19T04:40:22;100214.84;;;14.35;55.45
80749;BME280;70145;53.746;9.970;2023-09-19T04:42:58;100223.69;;;14.37;55.34
80749;BME280;70145;53.746;9.970;2023-09-19T04:45:25;100228.22;;;14.36;55.10
80749;BME280;70145;53.746;9.970;2023-09-19T04:47:54;100232.97;;;14.34;55.13
80749;BME280;70145;53.746;9.970;2023-09-19T04:50:20;100238.69;;;14.31;54.76
80749;BME280;70145;53.746;9.970;2023-09-19T04:52:51;100222.63;;;14.30;54.93
80749;BME280;70145;53.746;9.970;2023-09-19T04:55:18;100230.06;;;14.28;54.66
80749;BME280;70145;53.746;9.970;2023-09-19T04:57:48;100230.56;;;14.23;54.90
80749;BME280;70145;53.746;9.970;2023-09-19T05:00:15;100231.59;;;14.22;54.80
80749;BME280;70145;53.746;9.970;2023-09-19T05:02:42;100233.78;;;14.18;54.69
80749;BME280;70145;53.746;9.970;2023-09-19T05:05:08;100235.63;;;14.18;54.52
80749;BME280;70145;53.746;9.970;2023-09-19T05:07:35;100245.78;;;14.16;54.37
80749;BME280;70145;53.746;9.970;2023-09-19T05:10:02;100238.66;;;14.15;54.46
80749;BME280;70145;53.746;9.970;2023-09-19T05:12:31;100245.09;;;14.14;54.50
80749;BME280;70145;53.746;9.970;2023-09-19T05:14:56;100253.00;;;14.07;54.44
80749;BME280;70145;53.746;9.970;2023-09-19T05:17:22;100260.28;;;14.07;54.31
80749;BME280;70145;53.746;9.970;2023-09-19T05:19:49;100260.28;;;14.07;54.21
80749;BME280;70145;53.746;9.970;2023-09-19T05:22:15;100258.59;;;14.06;54.27
80749;BME280;70145;53.746;9.970;2023-09-19T05:24:40;100258.91;;;14.03;54.20
80749;BME280;70145;53.746;9.970;2023-09-19T05:27:05;100253.81;;;14.00;54.17
80749;BME280;70145;53.746;9.970;2023-09-19T05:29:32;100261.25;;;13.98;54.10
80749;BME280;70145;53.746;9.970;2023-09-19T05:31:58;100259.88;;;13.94;54.01
80749;BME280;70145;53.746;9.970;2023-09-19T05:34:24;100255.50;;;13.93;54.05
80749;BME280;70145;53.746;9.970;2023-09-19T05:36:55;100258.53;;;13.90;53.99
80749;BME280;70145;53.746;9.970;2023-09-19T05:39:20;100253.59;;;13.85;53.93
80749;BME280;70145;53.746;9.970;2023-09-19T05:41:45;100253.06;;;13.82;54.05
80749;BME280;70145;53.746;9.970;2023-09-19T05:44:12;100257.09;;;13.78;53.95
80749;BME280;70145;53.746;9.970;2023-09-19T05:46:39;100267.94;;;13.78;54.00
80749;BME280;70145;53.746;9.970;2023-09-19T05:49:04;100261.78;;;13.68;54.11
80749;BME280;70145;53.746;9.970;2023-09-19T05:51:30;100270.78;;;13.68;54.01
80749;BME280;70145;53.746;9.970;2023-09-19T05:53:55;100266.50;;;13.66;54.22
80749;BME280;70145;53.746;9.970;2023-09-19T05:56:21;100269.53;;;13.63;54.26
80749;BME280;70145;53.746;9.970;2023-09-19T05:58:46;100277.13;;;13.59;54.30
80749;BME280;70145;53.746;9.970;2023-09-19T06:01:11;100277.44;;;13.56;54.40
80749;BME280;70145;53.746;9.970;2023-09-19T06:03:37;100265.78;;;13.56;54.45
80749;BME280;70145;53.746;9.970;2023-09-19T06:06:02;100271.19;;;13.56;54.45
80749;BME280;70145;53.746;9.970;2023-09-19T06:08:29;100263.06;;;13.56;54.50
80749;BME280;70145;53.746;9.970;2023-09-19T06:10:55;100269.34;;;13.56;54.47
80749;BME280;70145;53.746;9.970;2023-09-19T06:13:20;100284.34;;;13.51;54.66
80749;BME280;70145;53.746;9.970;2023-09-19T06:15:46;100283.50;;;13.50;54.94
80749;BME280;70145;53.746;9.970;2023-09-19T06:18:14;100269.81;;;13.52;55.04
80749;BME280;70145;53.746;9.970;2023-09-19T06:20:45;100276.09;;;13.52;55.02
80749;BME280;70145;53.746;9.970;2023-09-19T06:23:10;100299.19;;;13.47;55.22
80749;BME280;70145;53.746;9.970;2023-09-19T06:25:35;100302.44;;;13.50;55.26
80749;BME280;70145;53.746;9.970;2023-09-19T06:28:01;100303.28;;;13.51;55.14
80749;BME280;70145;53.746;9.970;2023-09-19T06:30:30;100302.28;;;13.52;55.24
80749;BME280;70145;53.746;9.970;2023-09-19T06:32:59;100307.53;;;13.53;55.24
80749;BME280;70145;53.746;9.970;2023-09-19T06:35:26;100305.38;;;13.57;54.80
80749;BME280;70145;53.746;9.970;2023-09-19T06:37:51;100302.66;;;13.57;55.03
80749;BME280;70145;53.746;9.970;2023-09-19T06:40:18;100299.78;;;13.58;54.89
80749;BME280;70145;53.746;9.970;2023-09-19T06:42:49;100304.34;;;13.58;55.04
80749;BME280;70145;53.746;9.970;2023-09-19T06:45:15;100303.03;;;13.62;54.83
80749;BME280;70145;53.746;9.970;2023-09-19T06:47:48;100308.44;;;13.62;54.87
80749;BME280;70145;53.746;9.970;2023-09-19T06:50:21;100308.44;;;13.62;54.84
80749;BME280;70145;53.746;9.970;2023-09-19T06:52:51;100308.13;;;13.65;54.82
80749;BME280;70145;53.746;9.970;2023-09-19T06:55:18;100310.13;;;13.63;54.74
80749;BME280;70145;53.746;9.970;2023-09-19T06:57:47;100316.06;;;13.66;54.62
80749;BME280;70145;53.746;9.970;2023-09-19T07:00:14;100327.59;;;13.68;54.50
80749;BME280;70145;53.746;9.970;2023-09-19T07:03:00;100322.66;;;13.64;54.74
80749;BME280;70145;53.746;9.970;2023-09-19T07:05:27;100330.47;;;13.67;54.53
80749;BME280;70145;53.746;9.970;2023-09-19T07:07:53;100340.28;;;13.68;54.53
80749;BME280;70145;53.746;9.970;2023-09-19T07:10:19;100343.53;;;13.71;54.72
80749;BME280;70145;53.746;9.970;2023-09-19T07:12:45;100347.06;;;13.72;54.73
80749;BME280;70145;53.746;9.970;2023-09-19T07:15:13;100348.59;;;13.74;54.68
80749;BME280;70145;53.746;9.970;2023-09-19T07:17:38;100331.19;;;13.77;54.64
80749;BME280;70145;53.746;9.970;2023-09-19T07:20:04;100350.06;;;13.69;54.91
80749;BME280;70145;53.746;9.970;2023-09-19T07:22:33;100353.84;;;13.76;54.93
80749;BME280;70145;53.746;9.970;2023-09-19T07:24:58;100357.56;;;13.75;54.74
80749;BME280;70145;53.746;9.970;2023-09-19T07:27:23;100349.13;;;13.78;55.19
80749;BME280;70145;53.746;9.970;2023-09-19T07:29:49;100364.19;;;13.80;54.68
80749;BME280;70145;53.746;9.970;2023-09-19T07:32:14;100370.47;;;13.81;54.99
80749;BME280;70145;53.746;9.970;2023-09-19T07:34:42;100372.00;;;13.83;54.93
80749;BME280;70145;53.746;9.970;2023-09-19T07:37:09;100364.03;;;13.82;54.75
80749;BME280;70145;53.746;9.970;2023-09-19T07:39:35;100365.06;;;13.81;54.83
80749;BME280;70145;53.746;9.970;2023-09-19T07:42:00;100349.16;;;13.86;54.91
80749;BME280;70145;53.746;9.970;2023-09-19T07:44:25;100369.84;;;13.87;54.59
80749;BME280;70145;53.746;9.970;2023-09-19T07:46:51;100370.50;;;13.89;55.15
80749;BME280;70145;53.746;9.970;2023-09-19T07:49:17;100350.88;;;13.87;54.94
80749;BME280;70145;53.746;9.970;2023-09-19T07:51:43;100356.97;;;13.89;54.85
80749;BME280;70145;53.746;9.970;2023-09-19T07:54:12;100353.94;;;13.92;54.75
80749;BME280;70145;53.746;9.970;2023-09-19T07:56:39;100349.69;;;13.89;55.01
80749;BME280;70145;53.746;9.970;2023-09-19T07:59:04;100358.69;;;13.90;54.98
80749;BME280;70145;53.746;9.970;2023-09-19T08:01:30;100354.81;;;13.92;55.15
80749;BME280;70145;53.746;9.970;2023-09-19T08:03:55;100369.34;;;13.91;54.89
80749;BME280;70145;53.746;9.970;2023-09-19T08:06:20;100362.22;;;13.90;54.92
80749;BME280;70145;53.746;9.970;2023-09-19T08:08:46;100369.34;;;13.91;54.82
80749;BME280;70145;53.746;9.970;2023-09-19T08:11:11;100370.66;;;13.87;54.62
80749;BME280;70145;53.746;9.970;2023-09-19T08:13:38;100371.38;;;13.89;54.54
80749;BME280;70145;53.746;9.970;2023-09-19T08:16:12;100378.00;;;13.95;54.58
80749;BME280;70145;53.746;9.970;2023-09-19T08:18:38;100371.59;;;13.96;54.47
80749;BME280;70145;53.746;9.970;2023-09-19T08:21:05;100369.53;;;13.98;54.59
80749;BME280;70145;53.746;9.970;2023-09-19T08:23:33;100377.19;;;14.02;54.41
80749;BME280;70145;53.746;9.970;2023-09-19T08:25:58;100369.78;;;14.04;54.33
80749;BME280;70145;53.746;9.970;2023-09-19T08:28:31;100374.88;;;14.07;54.18
80749;BME280;70145;53.746;9.970;2023-09-19T08:31:01;100370.59;;;14.05;54.26
80749;BME280;70145;53.746;9.970;2023-09-19T08:33:26;100361.31;;;14.07;54.03
80749;BME280;70145;53.746;9.970;2023-09-19T08:35:55;100370.28;;;14.08;54.19
80749;BME280;70145;53.746;9.970;2023-09-19T08:38:21;100368.91;;;14.04;54.26
80749;BME280;70145;53.746;9.970;2023-09-19T08:40:46;100370.59;;;14.05;54.22
80749;BME280;70145;53.746;9.970;2023-09-19T08:43:11;100377.41;;;14.09;54.13
80749;BME280;70145;53.746;9.970;2023-09-19T08:45:38;100373.25;;;14.14;54.15
80749;BME280;70145;53.746;9.970;2023-09-19T08:50:43;100379.88;;;14.20;54.59
80749;BME280;70145;53.746;9.970;2023-09-19T08:53:19;100368.66;;;14.15;54.32
80749;BME280;70145;53.746;9.970;2023-09-19T08:55:46;100379.88;;;14.20;53.95
80749;BME280;70145;53.746;9.970;2023-09-19T08:58:15;100382.41;;;14.22;54.09
80749;BME280;70145;53.746;9.970;2023-09-19T09:00:45;100390.22;;;14.25;54.17
80749;BME280;70145;53.746;9.970;2023-09-19T09:03:16;100393.94;;;14.24;54.15
80749;BME280;70145;53.746;9.970;2023-09-19T09:05:41;100394.09;;;14.22;54.22
80749;BME280;70145;53.746;9.970;2023-09-19T09:08:09;100399.84;;;14.19;54.09
80749;BME280;70145;53.746;9.970;2023-09-19T09:10:37;100405.94;;;14.21;54.16
80749;BME280;70145;53.746;9.970;2023-09-19T09:13:03;100406.94;;;14.20;54.34
80749;BME280;70145;53.746;9.970;2023-09-19T09:15:30;100410.03;;;14.25;54.25
80749;BME280;70145;53.746;9.970;2023-09-19T09:17:57;100401.91;;;14.25;54.03
80749;BME280;70145;53.746;9.970;2023-09-19T09:20:23;100404.28;;;14.28;54.12
80749;BME280;70145;53.746;9.970;2023-09-19T09:22:52;100400.41;;;14.31;54.28
80749;BME280;70145;53.746;9.970;2023-09-19T09:25:19;100406.00;;;14.29;54.00
80749;BME280;70145;53.746;9.970;2023-09-19T09:27:48;100407.50;;;14.32;54.04
80749;BME280;70145;53.746;9.970;2023-09-19T09:30:33;100405.66;;;14.32;53.96
80749;BME280;70145;53.746;9.970;2023-09-19T09:33:12;100403.31;;;14.37;53.94
80749;BME280;70145;53.746;9.970;2023-09-19T09:36:07;100406.50;;;14.33;54.04
80749;BME280;70145;53.746;9.970;2023-09-19T09:38:45;100403.84;;;14.41;53.76
80749;BME280;70145;53.746;9.970;2023-09-19T09:41:11;100412.78;;;14.33;53.88
80749;BME280;70145;53.746;9.970;2023-09-19T09:43:41;100407.38;;;14.41;53.85
80749;BME280;70145;53.746;9.970;2023-09-19T09:46:20;100406.25;;;14.52;53.82
80749;BME280;70145;53.746;9.970;2023-09-19T09:48:45;100409.81;;;14.52;53.71
80749;BME280;70145;53.746;9.970;2023-09-19T09:51:31;100411.34;;;14.55;52.94
80749;BME280;70145;53.746;9.970;2023-09-19T09:54:15;100409.50;;;14.63;53.14
80749;BME280;70145;53.746;9.970;2023-09-19T09:57:00;100406.47;;;14.66;53.23
80749;BME280;70145;53.746;9.970;2023-09-19T10:02:18;100399.44;;;14.81;52.80
80749;BME280;70145;53.746;9.970;2023-09-19T10:04:53;100402.63;;;14.85;52.89
80749;BME280;70145;53.746;9.970;2023-09-19T10:07:40;100405.38;;;14.93;52.59
80749;BME280;70145;53.746;9.970;2023-09-19T10:10:15;100407.63;;;14.97;52.42
80749;BME280;70145;53.746;9.970;2023-09-19T10:12:55;100407.47;;;15.07;52.68
80749;BME280;70145;53.746;9.970;2023-09-19T10:15:31;100410.03;;;15.08;51.94
80749;BME280;70145;53.746;9.970;2023-09-19T10:17:59;100408.66;;;15.12;52.02
80749;BME280;70145;53.746;9.970;2023-09-19T10:20:26;100413.44;;;15.18;52.00
80749;BME280;70145;53.746;9.970;2023-09-19T10:22:56;100406.31;;;15.25;51.41
80749;BME280;70145;53.746;9.970;2023-09-19T10:25:25;100408.53;;;15.30;51.19
80749;BME280;70145;53.746;9.970;2023-09-19T10:27:52;100411.22;;;15.30;50.28
80749;BME280;70145;53.746;9.970;2023-09-19T10:30:22;100401.06;;;15.32;50.46
80749;BME280;70145;53.746;9.970;2023-09-19T10:32:58;100402.44;;;15.36;49.53
80749;BME280;70145;53.746;9.970;2023-09-19T10:35:25;100405.84;;;15.38;49.44
80749;BME280;70145;53.746;9.970;2023-09-19T10:37:51;100410.75;;;15.42;49.70
80749;BME280;70145;53.746;9.970;2023-09-19T10:40:20;100405.00;;;15.45;48.92
80749;BME280;70145;53.746;9.970;2023-09-19T10:42:48;100402.78;;;15.49;48.49
80749;BME280;70145;53.746;9.970;2023-09-19T10:45:15;100399.19;;;15.48;48.31
80749;BME280;70145;53.746;9.970;2023-09-19T10:47:42;100403.13;;;15.54;48.67
80749;BME280;70145;53.746;9.970;2023-09-19T10:50:08;100400.41;;;15.54;48.63
80749;BME280;70145;53.746;9.970;2023-09-19T10:52:40;100408.88;;;15.59;48.50
80749;BME280;70145;53.746;9.970;2023-09-19T10:55:07;100402.94;;;15.63;48.79
80749;BME280;70145;53.746;9.970;2023-09-19T10:57:34;100412.78;;;15.64;48.29
80749;BME280;70145;53.746;9.970;2023-09-19T11:00:10;100411.41;;;15.60;47.94
80749;BME280;70145;53.746;9.970;2023-09-19T11:05:35;100412.44;;;15.67;48.34
80749;BME280;70145;53.746;9.970;2023-09-19T11:08:07;100411.78;;;15.65;47.89
80749;BME280;70145;53.746;9.970;2023-09-19T11:10:49;100397.34;;;15.65;48.00
80749;BME280;70145;53.746;9.970;2023-09-19T11:24:27;100408.91;;;15.75;47.58
80749;BME280;70145;53.746;9.970;2023-09-19T11:27:13;100393.78;;;15.80;48.05
80749;BME280;70145;53.746;9.970;2023-09-19T11:29:38;100411.63;;;15.75;48.08
80749;BME280;70145;53.746;9.970;2023-09-19T11:32:04;100397.88;;;15.84;48.12
80749;BME280;70145;53.746;9.970;2023-09-19T11:34:37;100401.44;;;15.85;47.94
80749;BME280;70145;53.746;9.970;2023-09-19T11:42:45;100395.81;;;15.94;47.28
80749;BME280;70145;53.746;9.970;2023-09-19T11:48:23;100401.22;;;16.02;48.14
80749;BME280;70145;53.746;9.970;2023-09-19T11:50:52;100394.09;;;16.01;47.58
80749;BME280;70145;53.746;9.970;2023-09-19T11:53:18;100403.44;;;16.07;47.60
80749;BME280;70145;53.746;9.970;2023-09-19T11:55:45;100411.91;;;16.12;47.67
80749;BME280;70145;53.746;9.970;2023-09-19T11:58:11;100401.88;;;16.12;47.46
80749;BME280;70145;53.746;9.970;2023-09-19T12:00:42;100390.66;;;16.15;47.00
80749;BME280;70145;53.746;9.970;2023-09-19T12:03:11;100392.03;;;16.11;46.81
80749;BME280;70145;53.746;9.970;2023-09-19T12:05:37;100394.91;;;16.18;46.92
80749;BME280;70145;53.746;9.970;2023-09-19T12:08:04;100390.66;;;16.23;47.36
80749;BME280;70145;53.746;9.970;2023-09-19T12:10:32;100392.69;;;16.21;46.38
80749;BME280;70145;53.746;9.970;2023-09-19T12:12:58;100392.00;;;16.19;46.35
80749;BME280;70145;53.746;9.970;2023-09-19T12:15:25;100389.44;;;16.26;46.50
80749;BME280;70145;53.746;9.970;2023-09-19T12:17:59;100389.97;;;16.21;46.17
80749;BME280;70145;53.746;9.970;2023-09-19T12:20:26;100388.41;;;16.27;45.96
80749;BME280;70145;53.746;9.970;2023-09-19T12:23:12;100389.94;;;16.29;45.87
80749;BME280;70145;53.746;9.970;2023-09-19T12:25:42;100391.66;;;16.22;46.10
80749;BME280;70145;53.746;9.970;2023-09-19T12:28:11;100398.47;;;16.26;45.56
80749;BME280;70145;53.746;9.970;2023-09-19T12:30:37;100400.09;;;16.35;46.26
80749;BME280;70145;53.746;9.970;2023-09-19T12:33:16;100402.19;;;16.33;45.79
80749;BME280;70145;53.746;9.970;2023-09-19T12:35:44;100392.13;;;16.42;45.48
80749;BME280;70145;53.746;9.970;2023-09-19T12:38:10;100391.28;;;16.50;45.71
80749;BME280;70145;53.746;9.970;2023-09-19T12:40:37;100390.25;;;16.51;45.19
80749;BME280;70145;53.746;9.970;2023-09-19T12:43:04;100387.19;;;16.54;44.74
80749;BME280;70145;53.746;9.970;2023-09-19T12:45:30;100390.53;;;16.56;44.79
80749;BME280;70145;53.746;9.970;2023-09-19T12:48:19;100385.09;;;16.56;43.60
80749;BME280;70145;53.746;9.970;2023-09-19T12:51:09;100386.13;;;16.55;43.76
80749;BME280;70145;53.746;9.970;2023-09-19T12:53:45;100378.31;;;16.60;43.99
80749;BME280;70145;53.746;9.970;2023-09-19T12:56:17;100382.72;;;16.61;43.67
80749;BME280;70145;53.746;9.970;2023-09-19T12:58:54;100377.97;;;16.63;43.48
80749;BME280;70145;53.746;9.970;2023-09-19T13:01:21;100372.19;;;16.66;43.76
80749;BME280;70145;53.746;9.970;2023-09-19T13:04:15;100368.53;;;16.73;44.25
80749;BME280;70145;53.746;9.970;2023-09-19T13:06:48;100359.84;;;16.78;44.04
80749;BME280;70145;53.746;9.970;2023-09-19T13:09:15;100365.63;;;16.75;42.82
80749;BME280;70145;53.746;9.970;2023-09-19T13:11:41;100354.75;;;16.75;42.95
80749;BME280;70145;53.746;9.970;2023-09-19T13:17:01;100358.97;;;16.85;43.39
80749;BME280;70145;53.746;9.970;2023-09-19T13:19:36;100360.00;;;16.84;43.32
80749;BME280;70145;53.746;9.970;2023-09-19T13:22:03;100345.88;;;16.89;43.64
80749;BME280;70145;53.746;9.970;2023-09-19T13:24:28;100345.34;;;16.85;43.39
80749;BME280;70145;53.746;9.970;2023-09-19T13:26:56;100347.03;;;16.86;43.46
80749;BME280;70145;53.746;9.970;2023-09-19T13:29:21;100337.38;;;16.84;43.02
80749;BME280;70145;53.746;9.970;2023-09-19T13:31:51;100337.56;;;16.82;43.13
80749;BME280;70145;53.746;9.970;2023-09-19T13:34:18;100337.53;;;16.90;43.25
80749;BME280;70145;53.746;9.970;2023-09-19T13:36:44;100340.88;;;16.92;43.44
80749;BME280;70145;53.746;9.970;2023-09-19T13:39:10;100328.81;;;16.95;43.69
80749;BME280;70145;53.746;9.970;2023-09-19T13:41:38;100331.84;;;17.00;43.37
80749;BME280;70145;53.746;9.970;2023-09-19T13:44:03;100326.22;;;17.01;43.20